createdAt,value
2016-04-20T08:29:23.443Z,8.1
2016-04-20T08:32:35.544Z,8.2
2016-04-20T08:35:53.071Z,8.4
2016-04-20T08:38:55.798Z,8.5
2016-04-20T08:42:07.978Z,8.7
2016-04-20T08:45:18.659Z,8.7
2016-04-20T08:48:31.167Z,8.9
2016-04-20T08:51:48.708Z,8.9
2016-04-20T08:54:56.419Z,9
2016-04-20T08:57:59.194Z,9.2
2016-04-20T09:01:09.592Z,9.5
2016-04-20T09:04:22.193Z,9.6
2016-04-20T09:07:34.639Z,9.6
2016-04-20T09:10:52.072Z,9.7
2016-04-20T09:13:54.955Z,9.8
2016-04-20T09:17:07.431Z,10.2
2016-04-20T09:20:20.393Z,10.9
2016-04-20T09:23:31.150Z,11.2
2016-04-20T09:26:51.098Z,11
2016-04-20T09:29:53.966Z,10.6
2016-04-20T09:33:06.754Z,10.2
2016-04-20T09:36:18.465Z,10
2016-04-20T09:39:30.803Z,9.9
2016-04-20T09:42:48.969Z,9.8
2016-04-20T09:45:51.946Z,9.8
2016-04-20T09:49:04.736Z,10.1
2016-04-20T09:52:17.633Z,10.1
2016-04-20T09:55:30.267Z,10
2016-04-20T09:58:47.697Z,10.1
2016-04-20T10:01:55.551Z,10.4
2016-04-20T10:04:58.543Z,10.6
2016-04-20T10:08:11.005Z,10.6
2016-04-20T10:11:21.732Z,10.6
2016-04-20T10:14:36.537Z,10.6
2016-04-20T10:17:54.408Z,10.9
2016-04-20T10:20:57.572Z,11.2
2016-04-20T10:24:10.595Z,11.6
2016-04-20T10:27:23.712Z,11.8
2016-04-20T10:30:36.955Z,11.7
2016-04-20T10:33:55.044Z,11.9
2016-04-20T10:36:58.192Z,11.8
2016-04-20T10:40:11.481Z,11.9
2016-04-20T10:43:24.537Z,12
2016-04-20T10:46:37.436Z,11.8
2016-04-20T10:49:55.414Z,11.7
2016-04-20T10:52:58.407Z,11.7
2016-04-20T10:56:11.088Z,11.7
2016-04-20T10:59:23.767Z,11.6
2016-04-20T11:02:36.791Z,11.7
2016-04-20T11:05:54.739Z,11.8
2016-04-20T11:08:57.904Z,11.9
2016-04-20T11:12:09.099Z,11.8
2016-04-20T11:15:21.936Z,11.5
2016-04-20T11:18:34.787Z,11.3
2016-04-20T11:21:52.642Z,11.5
2016-04-20T11:24:55.541Z,11.5
2016-04-20T11:28:06.173Z,11.5
2016-04-20T11:31:20.775Z,11.5
2016-04-20T11:34:33.924Z,11.5
2016-04-20T11:40:55.302Z,11.5
2016-04-20T11:44:08.481Z,11.5
2016-04-20T11:47:21.239Z,11.5
2016-04-20T11:50:34.264Z,11.4
2016-04-20T11:53:52.022Z,11.3
2016-04-20T11:56:55.094Z,11.2
2016-04-20T12:00:08.072Z,11.3
2016-04-20T12:03:21.126Z,11.3
2016-04-20T12:06:31.432Z,11.2
2016-04-20T12:09:51.471Z,11
2016-04-20T12:12:54.574Z,11
2016-04-20T12:16:07.208Z,11
2016-04-20T12:19:19.920Z,10.9
2016-04-20T12:22:32.944Z,10.8
2016-04-20T12:25:50.811Z,10.7
2016-04-20T12:28:53.882Z,10.7
2016-04-20T12:32:06.704Z,10.6
2016-04-20T12:35:19.526Z,10.6
2016-04-20T12:38:32.377Z,10.7
2016-04-20T12:41:50.183Z,10.7
2016-04-20T12:44:53.315Z,10.7
2016-04-20T12:48:06.170Z,10.7
2016-04-20T12:51:19.162Z,10.7
2016-04-20T12:54:32.077Z,10.7
2016-04-20T12:57:49.600Z,10.7
2016-04-20T13:00:52.655Z,10.7
2016-04-20T13:04:05.557Z,10.7
2016-04-20T13:07:18.440Z,10.7
2016-04-20T13:10:31.291Z,10.7
2016-04-20T13:13:49.471Z,10.7
2016-04-20T13:16:52.792Z,10.7
2016-04-20T13:20:06.365Z,10.7
2016-04-20T13:23:14.670Z,10.7
2016-04-20T13:26:27.444Z,10.8
2016-04-20T13:29:40.530Z,11
2016-04-20T13:32:53.648Z,11
2016-04-20T13:36:06.377Z,11.1
2016-04-20T13:39:19.541Z,11.1
2016-04-20T13:42:32.643Z,11.1
2016-04-20T13:45:47.339Z,11.1
2016-04-20T13:48:55.535Z,11.2
2016-04-20T13:51:58.651Z,11.2
2016-04-20T13:55:11.459Z,11.4
2016-04-20T13:58:24.734Z,11.6
2016-04-20T14:01:37.695Z,11.6
2016-04-20T14:04:55.483Z,11.6
2016-04-20T14:07:58.742Z,11.5
2016-04-20T14:11:11.815Z,11.4
2016-04-20T14:14:24.808Z,11.4
2016-04-20T14:17:37.862Z,11.3
2016-04-20T14:20:55.918Z,11.2
2016-04-20T14:23:58.973Z,11.1
2016-04-20T14:27:11.796Z,11
2016-04-20T14:30:24.477Z,11
2016-04-20T14:33:37.156Z,11
2016-04-20T14:36:55.086Z,11
2016-04-20T14:39:58.126Z,10.9
2016-04-20T14:43:11.214Z,10.9
2016-04-20T14:46:24.098Z,10.8
2016-04-20T14:49:37.075Z,10.8
2016-04-20T14:52:55.098Z,10.8
2016-04-20T14:55:58.185Z,10.8
2016-04-20T14:59:11.165Z,10.8
2016-04-20T15:02:24.156Z,10.8
2016-04-20T15:05:34.805Z,10.8
2016-04-20T15:08:54.954Z,10.8
2016-04-20T15:11:58.134Z,10.8
2016-04-20T15:15:16.269Z,10.8
2016-04-20T15:18:26.824Z,10.8
2016-04-20T15:21:35.301Z,10.9
2016-04-20T15:24:53.168Z,10.9
2016-04-20T15:27:56.567Z,11
2016-04-20T15:31:09.218Z,11.1
2016-04-20T15:34:20.601Z,11.2
2016-04-20T15:37:32.005Z,11.3
2016-04-20T15:40:50.061Z,11.3
2016-04-20T15:43:53.256Z,11.3
2016-04-20T15:47:06.173Z,11.3
2016-04-20T15:50:18.822Z,11.4
2016-04-20T15:53:31.580Z,11.4
2016-04-20T15:56:49.821Z,11.5
2016-04-20T15:59:53.112Z,11.5
2016-04-20T16:03:02.859Z,11.5
2016-04-20T16:09:28.121Z,11.6
2016-04-20T16:12:40.824Z,11.6
2016-04-20T16:15:53.479Z,11.5
2016-04-20T16:19:06.601Z,11.5
2016-04-20T16:22:17.032Z,11.4
2016-04-20T16:25:30.120Z,11.3
2016-04-20T16:28:48.132Z,11.3
2016-04-20T16:31:56.390Z,11.3
2016-04-20T16:34:59.476Z,11.2
2016-04-20T16:38:12.249Z,11.1
2016-04-20T16:41:25.429Z,11.1
2016-04-20T16:44:38.425Z,11
2016-04-20T16:47:56.089Z,10.9
2016-04-20T16:50:59.301Z,10.9
2016-04-20T16:54:12.370Z,10.8
2016-04-20T16:57:23.878Z,10.7
2016-04-20T17:00:36.796Z,10.7
2016-04-20T17:03:54.366Z,10.6
2016-04-20T17:06:57.687Z,10.6
2016-04-20T17:10:08.163Z,10.6
2016-04-20T17:13:23.376Z,10.5
2016-04-20T17:16:34.477Z,10.5
2016-04-20T17:19:52.222Z,10.4
2016-04-20T17:22:55.262Z,10.3
2016-04-20T17:26:06.317Z,10.3
2016-04-20T17:29:21.074Z,10.2
2016-04-20T17:32:31.707Z,10.2
2016-04-20T17:35:51.859Z,10.2
2016-04-20T17:38:54.960Z,10.1
2016-04-20T17:42:07.985Z,10
2016-04-20T17:45:20.727Z,10
2016-04-20T17:48:33.829Z,9.8
2016-04-20T17:51:51.777Z,9.8
2016-04-20T17:54:54.885Z,9.7
2016-04-20T17:58:07.471Z,9.7
2016-04-20T18:01:20.416Z,9.6
2016-04-20T18:04:29.861Z,9.5
2016-04-20T18:07:49.698Z,9.5
2016-04-20T18:10:57.613Z,9.5
2016-04-20T18:14:00.621Z,9.4
2016-04-20T18:17:13.634Z,9.3
2016-04-20T18:20:26.422Z,9.2
2016-04-20T18:23:39.548Z,9.2
2016-04-20T18:26:57.244Z,9.2
2016-04-20T18:30:00.314Z,9.1
2016-04-20T18:33:10.510Z,9.1
2016-04-20T18:36:23.408Z,9
2016-04-20T18:39:36.354Z,8.9
2016-04-20T18:42:53.896Z,8.8
2016-04-20T18:45:56.872Z,8.7
2016-04-20T18:49:09.771Z,8.6
2016-04-20T18:52:22.450Z,8.5
2016-04-20T18:55:35.397Z,8.4
2016-04-20T18:58:53.205Z,8.4
2016-04-20T19:01:56.056Z,8.3
2016-04-20T19:05:08.908Z,8.2
2016-04-20T19:08:21.696Z,8.2
2016-04-20T19:11:34.487Z,8.1
2016-04-20T19:14:51.982Z,8
2016-04-20T19:17:54.942Z,8
2016-04-20T19:21:05.592Z,7.9
2016-04-20T19:24:20.397Z,7.9
2016-04-20T19:27:33.139Z,7.8
2016-04-20T19:30:50.541Z,7.7
2016-04-20T19:33:53.392Z,7.7
2016-04-20T19:37:06.135Z,7.7
2016-04-20T19:40:18.674Z,7.7
2016-04-20T19:43:31.119Z,7.6
2016-04-20T19:46:42.943Z,7.6
2016-04-20T19:49:55.529Z,7.5
2016-04-20T19:53:08.459Z,7.4
2016-04-20T19:56:17.983Z,7.4
2016-04-20T19:59:29.006Z,7.4
2016-04-20T20:02:41.749Z,7.3
2016-04-20T20:05:54.447Z,7.2
2016-04-20T20:09:06.908Z,7.1
2016-04-20T20:12:19.308Z,7.1
2016-04-20T20:15:31.955Z,7.1
2016-04-20T20:18:42.760Z,7
2016-04-20T20:21:55.078Z,7
2016-04-20T20:25:07.688Z,6.9
2016-04-20T20:28:20.322Z,6.9
2016-04-20T20:31:33.111Z,6.9
2016-04-20T20:34:50.199Z,6.9
2016-04-20T20:37:57.942Z,6.9
2016-04-20T20:41:00.606Z,6.8
2016-04-20T20:44:13.317Z,6.8
2016-04-20T20:47:26.060Z,6.7
2016-04-20T20:50:38.693Z,6.7
2016-04-20T20:53:56.017Z,6.7
2016-04-20T20:56:58.774Z,6.6
2016-04-20T21:00:11.220Z,6.6
2016-04-20T21:03:23.369Z,6.6
2016-04-20T21:06:35.690Z,6.5
2016-04-20T21:09:53.247Z,6.5
2016-04-20T21:12:55.802Z,6.5
2016-04-20T21:16:08.326Z,6.4
2016-04-20T21:19:17.616Z,6.4
2016-04-20T21:22:30.779Z,6.4
2016-04-20T21:25:42.897Z,6.3
2016-04-20T21:28:55.596Z,6.3
2016-04-20T21:32:06.354Z,6.3
2016-04-20T21:35:20.409Z,6.2
2016-04-20T21:38:32.401Z,6.2
2016-04-20T21:41:44.347Z,6.1
2016-04-20T21:44:56.826Z,6.1
2016-04-20T21:48:09.271Z,6.1
2016-04-20T21:51:21.717Z,6
2016-04-20T21:54:34.022Z,6
2016-04-20T21:57:50.749Z,5.9
2016-04-20T22:00:58.275Z,5.9
2016-04-20T22:04:00.862Z,5.9
2016-04-20T22:07:13.417Z,5.9
2016-04-20T22:10:26.096Z,5.9
2016-04-20T22:13:36.338Z,5.8
2016-04-20T22:16:53.894Z,5.8
2016-04-20T22:19:56.420Z,5.8
2016-04-20T22:23:08.787Z,5.8
2016-04-20T22:26:21.264Z,5.7
2016-04-20T22:29:33.851Z,5.7
2016-04-20T22:32:51.327Z,5.6
2016-04-20T22:35:58.884Z,5.6
2016-04-20T22:39:01.549Z,5.6
2016-04-20T22:42:14.089Z,5.6
2016-04-20T22:45:26.612Z,5.6
2016-04-20T22:48:38.807Z,5.6
2016-04-20T22:54:58.499Z,5.5
2016-04-20T22:58:10.694Z,5.4
2016-04-20T23:01:22.941Z,5.4
2016-04-20T23:04:35.338Z,5.3
2016-04-20T23:07:45.738Z,5.3
2016-04-20T23:10:57.983Z,5.2
2016-04-20T23:14:10.397Z,5.1
2016-04-20T23:17:22.249Z,5
2016-04-20T23:20:34.663Z,5
2016-04-20T23:23:52.031Z,4.9
2016-04-20T23:26:59.495Z,4.8
2016-04-20T23:30:02.003Z,4.7
2016-04-20T23:33:14.355Z,4.7
2016-04-20T23:36:26.753Z,4.6
2016-04-20T23:39:39.230Z,4.6
2016-04-20T23:42:56.521Z,4.6
2016-04-20T23:45:58.952Z,4.6
2016-04-20T23:49:08.070Z,4.5
2016-04-20T23:52:20.249Z,4.5
2016-04-20T23:55:32.476Z,4.4
2016-04-20T23:58:44.876Z,4.4
